sensor_id;sensor_type;location;lat;lon;timestamp;pressure;altitude;pressure_sealevel;temperature;humidity
42247;BME280;27913;42.722;23.268;2023-12-20T00:00:57;95223.38;;;-0.63;100.00
42247;BME280;27913;42.722;23.268;2023-12-20T00:03:23;95391.41;;;0.56;100.00
42247;BME280;27913;42.722;23.268;2023-12-20T00:05:49;95406.94;;;0.56;100.00
42247;BME280;27913;42.722;23.268;2023-12-20T00:08:16;95121.44;;;-1.06;100.00
42247;BME280;27913;42.722;23.268;2023-12-20T00:10:41;95382.25;;;0.52;100.00
42247;BME280;27913;42.722;23.268;2023-12-20T00:13:07;95037.72;;;-1.63;100.00
42247;BME280;27913;42.722;23.268;2023-12-20T00:15:33;95267.44;;;-0.29;100.00
42247;BME280;27913;42.722;23.268;2023-12-20T00:17:59;94833.75;;;-2.92;100.00
42247;BME280;27913;42.722;23.268;2023-12-20T00:20:24;95385.41;;;0.44;100.00
42247;BME280;27913;42.722;23.268;2023-12-20T00:22:50;95350.50;;;0.14;100.00
42247;BME280;27913;42.722;23.268;2023-12-20T00:25:16;95379.31;;;0.45;100.00
42247;BME280;27913;42.722;23.268;2023-12-20T00:27:41;95348.25;;;0.45;100.00
42247;BME280;27913;42.722;23.268;2023-12-20T00:30:08;95271.09;;;-0.20;100.00
42247;BME280;27913;42.722;23.268;2023-12-20T00:32:35;95356.69;;;0.36;100.00
42247;BME280;27913;42.722;23.268;2023-12-20T00:35:01;95374.09;;;0.34;100.00
42247;BME280;27913;42.722;23.268;2023-12-20T00:37:26;95074.06;;;-1.30;100.00
42247;BME280;27913;42.722;23.268;2023-12-20T00:39:52;95368.47;;;0.40;100.00
42247;BME280;27913;42.722;23.268;2023-12-20T00:42:17;95355.53;;;0.40;100.00
42247;BME280;27913;42.722;23.268;2023-12-20T00:44:43;94718.66;;;-3.52;100.00
42247;BME280;27913;42.722;23.268;2023-12-20T00:47:09;95141.22;;;-0.94;100.00
42247;BME280;27913;42.722;23.268;2023-12-20T00:49:34;95106.41;;;-1.13;100.00
42247;BME280;27913;42.722;23.268;2023-12-20T00:52:00;95347.59;;;0.30;100.00
42247;BME280;27913;42.722;23.268;2023-12-20T00:54:25;95346.31;;;0.25;100.00
42247;BME280;27913;42.722;23.268;2023-12-20T00:56:51;95080.03;;;-1.41;100.00
42247;BME280;27913;42.722;23.268;2023-12-20T00:59:17;95346.53;;;0.21;100.00
42247;BME280;27913;42.722;23.268;2023-12-20T01:04:19;94879.56;;;-2.60;100.00
42247;BME280;27913;42.722;23.268;2023-12-20T01:06:45;95335.38;;;0.21;100.00
42247;BME280;27913;42.722;23.268;2023-12-20T01:09:11;95319.97;;;0.19;100.00
42247;BME280;27913;42.722;23.268;2023-12-20T01:11:36;95162.19;;;-0.74;100.00
42247;BME280;27913;42.722;23.268;2023-12-20T01:14:02;95309.72;;;0.18;100.00
42247;BME280;27913;42.722;23.268;2023-12-20T01:16:27;94898.16;;;-2.43;100.00
42247;BME280;27913;42.722;23.268;2023-12-20T01:18:53;95315.72;;;0.18;100.00
42247;BME280;27913;42.722;23.268;2023-12-20T01:21:19;94816.94;;;-2.85;100.00
42247;BME280;27913;42.722;23.268;2023-12-20T01:23:45;95309.72;;;0.18;100.00
42247;BME280;27913;42.722;23.268;2023-12-20T01:26:10;95207.34;;;-0.44;100.00
42247;BME280;27913;42.722;23.268;2023-12-20T01:28:37;95115.75;;;-0.99;100.00
42247;BME280;27913;42.722;23.268;2023-12-20T01:31:02;95262.31;;;-0.06;100.00
42247;BME280;27913;42.722;23.268;2023-12-20T01:33:29;95296.53;;;0.09;100.00
42247;BME280;27913;42.722;23.268;2023-12-20T01:35:55;95291.84;;;0.03;100.00
42247;BME280;27913;42.722;23.268;2023-12-20T01:38:20;94943.06;;;-2.10;100.00
42247;BME280;27913;42.722;23.268;2023-12-20T01:40:46;95287.69;;;0.01;100.00
42247;BME280;27913;42.722;23.268;2023-12-20T01:43:11;95286.06;;;-0.01;100.00
42247;BME280;27913;42.722;23.268;2023-12-20T01:45:38;95246.28;;;-0.22;100.00
42247;BME280;27913;42.722;23.268;2023-12-20T01:48:05;95120.22;;;-0.89;100.00
42247;BME280;27913;42.722;23.268;2023-12-20T01:50:31;95068.38;;;-1.11;100.00
42247;BME280;27913;42.722;23.268;2023-12-20T01:52:58;94816.38;;;-2.77;100.00
42247;BME280;27913;42.722;23.268;2023-12-20T01:55:27;95083.56;;;-1.06;100.00
42247;BME280;27913;42.722;23.268;2023-12-20T01:57:55;95147.19;;;-0.57;100.00
42247;BME280;27913;42.722;23.268;2023-12-20T02:00:22;95165.41;;;-0.47;100.00
42247;BME280;27913;42.722;23.268;2023-12-20T02:02:50;95255.88;;;0.11;100.00
42247;BME280;27913;42.722;23.268;2023-12-20T02:05:18;94729.47;;;-3.22;100.00
42247;BME280;27913;42.722;23.268;2023-12-20T02:07:44;95217.59;;;-0.19;100.00
42247;BME280;27913;42.722;23.268;2023-12-20T02:10:09;95257.97;;;0.06;100.00
42247;BME280;27913;42.722;23.268;2023-12-20T02:12:35;94734.66;;;-3.11;100.00
42247;BME280;27913;42.722;23.268;2023-12-20T02:15:01;95212.13;;;-0.15;100.00
42247;BME280;27913;42.722;23.268;2023-12-20T02:17:27;95242.78;;;-0.10;100.00
42247;BME280;27913;42.722;23.268;2023-12-20T02:19:53;95138.34;;;-0.78;100.00
42247;BME280;27913;42.722;23.268;2023-12-20T02:22:18;95051.69;;;-1.29;100.00
42247;BME280;27913;42.722;23.268;2023-12-20T02:24:44;95039.50;;;-1.27;100.00
42247;BME280;27913;42.722;23.268;2023-12-20T02:27:10;95217.28;;;-0.03;100.00
42247;BME280;27913;42.722;23.268;2023-12-20T02:29:36;95236.56;;;-0.07;100.00
42247;BME280;27913;42.722;23.268;2023-12-20T02:32:02;95220.59;;;-0.13;100.00
42247;BME280;27913;42.722;23.268;2023-12-20T02:34:28;95226.66;;;-0.25;100.00
42247;BME280;27913;42.722;23.268;2023-12-20T02:36:54;95225.72;;;-0.24;100.00
42247;BME280;27913;42.722;23.268;2023-12-20T02:39:21;95046.28;;;-1.26;100.00
42247;BME280;27913;42.722;23.268;2023-12-20T02:41:48;95209.34;;;-0.47;100.00
42247;BME280;27913;42.722;23.268;2023-12-20T02:44:14;95215.66;;;-0.52;100.00
42247;BME280;27913;42.722;23.268;2023-12-20T02:46:39;95199.09;;;-0.49;100.00
42247;BME280;27913;42.722;23.268;2023-12-20T02:49:06;95204.53;;;-0.41;100.00
42247;BME280;27913;42.722;23.268;2023-12-20T02:51:31;94722.63;;;-3.35;100.00
42247;BME280;27913;42.722;23.268;2023-12-20T02:53:57;95212.19;;;-0.39;100.00
42247;BME280;27913;42.722;23.268;2023-12-20T02:56:23;94969.06;;;-1.88;100.00
42247;BME280;27913;42.722;23.268;2023-12-20T02:58:48;95050.75;;;-1.53;100.00
42247;BME280;27913;42.722;23.268;2023-12-20T03:01:14;95174.81;;;-0.82;100.00
42247;BME280;27913;42.722;23.268;2023-12-20T03:03:40;95212.06;;;-0.74;100.00
42247;BME280;27913;42.722;23.268;2023-12-20T03:06:05;95206.78;;;-0.72;100.00
42247;BME280;27913;42.722;23.268;2023-12-20T03:08:31;95009.13;;;-1.84;100.00
42247;BME280;27913;42.722;23.268;2023-12-20T03:10:59;95164.63;;;-1.08;100.00
42247;BME280;27913;42.722;23.268;2023-12-20T03:13:25;94913.88;;;-2.72;100.00
42247;BME280;27913;42.722;23.268;2023-12-20T03:15:50;95191.66;;;-1.01;100.00
42247;BME280;27913;42.722;23.268;2023-12-20T03:18:16;95193.50;;;-1.03;100.00
42247;BME280;27913;42.722;23.268;2023-12-20T03:20:42;95186.44;;;-1.13;100.00
42247;BME280;27913;42.722;23.268;2023-12-20T03:23:07;95195.59;;;-1.08;100.00
42247;BME280;27913;42.722;23.268;2023-12-20T03:25:33;95190.16;;;-0.92;100.00
42247;BME280;27913;42.722;23.268;2023-12-20T03:27:59;95176.47;;;-0.81;100.00
42247;BME280;27913;42.722;23.268;2023-12-20T03:30:25;95026.53;;;-1.75;100.00
42247;BME280;27913;42.722;23.268;2023-12-20T03:32:51;95194.22;;;-0.77;100.00
42247;BME280;27913;42.722;23.268;2023-12-20T03:35:16;95141.13;;;-1.17;100.00
42247;BME280;27913;42.722;23.268;2023-12-20T03:37:42;95192.47;;;-1.01;100.00
42247;BME280;27913;42.722;23.268;2023-12-20T03:40:08;95189.66;;;-0.98;100.00
42247;BME280;27913;42.722;23.268;2023-12-20T03:42:33;95186.38;;;-1.00;100.00
42247;BME280;27913;42.722;23.268;2023-12-20T03:44:59;95091.88;;;-1.38;100.00
42247;BME280;27913;42.722;23.268;2023-12-20T03:47:25;95173.16;;;-0.95;100.00
42247;BME280;27913;42.722;23.268;2023-12-20T03:49:50;95180.56;;;-1.15;100.00
42247;BME280;27913;42.722;23.268;2023-12-20T03:52:16;95182.09;;;-1.12;100.00
42247;BME280;27913;42.722;23.268;2023-12-20T03:54:42;95121.91;;;-1.37;100.00
42247;BME280;27913;42.722;23.268;2023-12-20T03:57:08;94643.69;;;-4.34;100.00
42247;BME280;27913;42.722;23.268;2023-12-20T03:59:37;95176.00;;;-1.11;100.00
42247;BME280;27913;42.722;23.268;2023-12-20T04:02:03;94781.91;;;-3.49;100.00
42247;BME280;27913;42.722;23.268;2023-12-20T04:04:29;95169.16;;;-0.88;100.00
42247;BME280;27913;42.722;23.268;2023-12-20T04:06:55;95103.25;;;-1.16;100.00
42247;BME280;27913;42.722;23.268;2023-12-20T04:09:20;94716.94;;;-3.52;100.00
42247;BME280;27913;42.722;23.268;2023-12-20T04:11:46;95156.66;;;-0.81;100.00
42247;BME280;27913;42.722;23.268;2023-12-20T04:14:12;95143.16;;;-0.73;100.00
42247;BME280;27913;42.722;23.268;2023-12-20T04:16:37;94982.94;;;-1.66;100.00
42247;BME280;27913;42.722;23.268;2023-12-20T04:19:04;94766.75;;;-3.04;100.00
42247;BME280;27913;42.722;23.268;2023-12-20T04:21:30;95138.69;;;-0.71;100.00
42247;BME280;27913;42.722;23.268;2023-12-20T04:23:56;94979.56;;;-1.67;100.00
42247;BME280;27913;42.722;23.268;2023-12-20T04:26:21;94985.53;;;-1.66;100.00
42247;BME280;27913;42.722;23.268;2023-12-20T04:28:47;95148.09;;;-0.70;100.00
42247;BME280;27913;42.722;23.268;2023-12-20T04:31:13;94968.25;;;-1.77;100.00
42247;BME280;27913;42.722;23.268;2023-12-20T04:33:38;95079.53;;;-1.10;100.00
42247;BME280;27913;42.722;23.268;2023-12-20T04:36:04;94713.16;;;-3.34;100.00
42247;BME280;27913;42.722;23.268;2023-12-20T04:38:30;95159.59;;;-0.74;100.00
42247;BME280;27913;42.722;23.268;2023-12-20T04:40:56;95042.59;;;-1.71;100.00
42247;BME280;27913;42.722;23.268;2023-12-20T04:43:22;95045.84;;;-1.80;100.00
42247;BME280;27913;42.722;23.268;2023-12-20T04:45:47;95140.53;;;-1.45;100.00
42247;BME280;27913;42.722;23.268;2023-12-20T04:48:13;95132.56;;;-1.42;100.00
42247;BME280;27913;42.722;23.268;2023-12-20T04:50:39;95150.09;;;-1.34;100.00
42247;BME280;27913;42.722;23.268;2023-12-20T04:53:04;95149.47;;;-1.62;100.00
42247;BME280;27913;42.722;23.268;2023-12-20T04:55:30;95131.13;;;-1.71;100.00
42247;BME280;27913;42.722;23.268;2023-12-20T04:57:56;94847.97;;;-3.50;100.00
42247;BME280;27913;42.722;23.268;2023-12-20T05:00:22;95134.97;;;-1.89;100.00
42247;BME280;27913;42.722;23.268;2023-12-20T05:02:50;94905.25;;;-3.35;100.00
42247;BME280;27913;42.722;23.268;2023-12-20T05:05:15;95130.47;;;-2.12;100.00
42247;BME280;27913;42.722;23.268;2023-12-20T05:07:43;94955.66;;;-3.06;100.00
42247;BME280;27913;42.722;23.268;2023-12-20T05:10:09;95116.34;;;-2.06;100.00
42247;BME280;27913;42.722;23.268;2023-12-20T05:12:35;95124.19;;;-2.08;100.00
42247;BME280;27913;42.722;23.268;2023-12-20T05:15:00;95117.91;;;-2.16;100.00
42247;BME280;27913;42.722;23.268;2023-12-20T05:17:26;95119.34;;;-2.12;100.00
42247;BME280;27913;42.722;23.268;2023-12-20T05:19:52;94897.44;;;-3.46;100.00
42247;BME280;27913;42.722;23.268;2023-12-20T05:22:19;94832.31;;;-3.60;100.00
42247;BME280;27913;42.722;23.268;2023-12-20T05:24:45;94732.84;;;-4.10;100.00
42247;BME280;27913;42.722;23.268;2023-12-20T05:27:11;95118.25;;;-1.84;100.00
42247;BME280;27913;42.722;23.268;2023-12-20T05:29:36;95105.22;;;-1.69;100.00
42247;BME280;27913;42.722;23.268;2023-12-20T05:32:02;95025.19;;;-2.05;100.00
42247;BME280;27913;42.722;23.268;2023-12-20T05:34:30;95101.16;;;-1.85;100.00
42247;BME280;27913;42.722;23.268;2023-12-20T05:36:57;95099.44;;;-2.10;100.00
42247;BME280;27913;42.722;23.268;2023-12-20T05:39:23;95096.97;;;-2.12;100.00
42247;BME280;27913;42.722;23.268;2023-12-20T05:41:48;95095.03;;;-2.21;100.00
42247;BME280;27913;42.722;23.268;2023-12-20T05:44:14;95092.31;;;-2.07;100.00
42247;BME280;27913;42.722;23.268;2023-12-20T05:46:40;94755.31;;;-4.27;100.00
42247;BME280;27913;42.722;23.268;2023-12-20T05:49:06;95095.63;;;-2.04;100.00
42247;BME280;27913;42.722;23.268;2023-12-20T05:51:31;94657.94;;;-4.69;100.00
42247;BME280;27913;42.722;23.268;2023-12-20T05:53:58;94948.41;;;-2.88;100.00
42247;BME280;27913;42.722;23.268;2023-12-20T05:56:24;95086.06;;;-2.15;100.00
42247;BME280;27913;42.722;23.268;2023-12-20T05:58:49;94879.19;;;-3.17;100.00
42247;BME280;27913;42.722;23.268;2023-12-20T06:01:15;95102.69;;;-1.82;100.00
42247;BME280;27913;42.722;23.268;2023-12-20T06:03:42;95082.44;;;-1.75;100.00
42247;BME280;27913;42.722;23.268;2023-12-20T06:06:08;94976.22;;;-2.29;100.00
42247;BME280;27913;42.722;23.268;2023-12-20T06:08:34;94976.03;;;-2.39;100.00
42247;BME280;27913;42.722;23.268;2023-12-20T06:11:00;94633.09;;;-4.42;100.00
42247;BME280;27913;42.722;23.268;2023-12-20T06:13:25;95087.56;;;-1.62;100.00
42247;BME280;27913;42.722;23.268;2023-12-20T06:15:51;95096.41;;;-1.53;100.00
42247;BME280;27913;42.722;23.268;2023-12-20T06:18:17;95082.63;;;-1.41;100.00
42247;BME280;27913;42.722;23.268;2023-12-20T06:20:43;95090.25;;;-1.39;100.00
42247;BME280;27913;42.722;23.268;2023-12-20T06:23:08;95087.09;;;-1.31;100.00
42247;BME280;27913;42.722;23.268;2023-12-20T06:25:34;95086.66;;;-1.25;100.00
42247;BME280;27913;42.722;23.268;2023-12-20T06:28:00;95050.44;;;-1.48;100.00
42247;BME280;27913;42.722;23.268;2023-12-20T06:30:25;94933.59;;;-1.98;100.00
42247;BME280;27913;42.722;23.268;2023-12-20T06:32:53;95091.44;;;-0.96;100.00
42247;BME280;27913;42.722;23.268;2023-12-20T06:35:19;95038.22;;;-1.22;100.00
42247;BME280;27913;42.722;23.268;2023-12-20T06:37:44;94749.72;;;-2.93;100.00
42247;BME280;27913;42.722;23.268;2023-12-20T06:40:10;94810.50;;;-2.55;100.00
42247;BME280;27913;42.722;23.268;2023-12-20T06:42:36;95077.72;;;-0.85;100.00
42247;BME280;27913;42.722;23.268;2023-12-20T06:45:03;95066.81;;;-0.77;100.00
42247;BME280;27913;42.722;23.268;2023-12-20T06:47:28;95076.47;;;-0.68;100.00
42247;BME280;27913;42.722;23.268;2023-12-20T06:49:54;95078.47;;;-0.60;100.00
42247;BME280;27913;42.722;23.268;2023-12-20T06:52:19;95060.63;;;-0.52;100.00
42247;BME280;27913;42.722;23.268;2023-12-20T06:54:45;95070.25;;;-0.54;100.00
42247;BME280;27913;42.722;23.268;2023-12-20T06:57:11;94864.78;;;-1.61;100.00
42247;BME280;27913;42.722;23.268;2023-12-20T06:59:40;94946.25;;;-1.11;100.00
42247;BME280;27913;42.722;23.268;2023-12-20T07:02:06;95066.75;;;-0.41;100.00
42247;BME280;27913;42.722;23.268;2023-12-20T07:04:32;94724.16;;;-2.47;100.00
42247;BME280;27913;42.722;23.268;2023-12-20T07:06:57;95054.75;;;-0.31;100.00
42247;BME280;27913;42.722;23.268;2023-12-20T07:09:26;95062.38;;;-0.29;100.00
42247;BME280;27913;42.722;23.268;2023-12-20T07:11:52;95049.34;;;-0.28;100.00
42247;BME280;27913;42.722;23.268;2023-12-20T07:14:18;94965.97;;;-0.99;100.00
42247;BME280;27913;42.722;23.268;2023-12-20T07:16:43;94605.41;;;-3.26;100.00
42247;BME280;27913;42.722;23.268;2023-12-20T07:19:09;95040.41;;;-0.58;100.00
42247;BME280;27913;42.722;23.268;2023-12-20T07:21:35;94685.56;;;-2.83;100.00
42247;BME280;27913;42.722;23.268;2023-12-20T07:24:00;94781.56;;;-2.34;100.00
42247;BME280;27913;42.722;23.268;2023-12-20T07:26:26;95048.38;;;-0.84;100.00
42247;BME280;27913;42.722;23.268;2023-12-20T07:28:51;95032.63;;;-1.04;100.00
42247;BME280;27913;42.722;23.268;2023-12-20T07:31:17;94765.97;;;-2.80;100.00
42247;BME280;27913;42.722;23.268;2023-12-20T07:33:43;94588.34;;;-4.01;100.00
42247;BME280;27913;42.722;23.268;2023-12-20T07:36:08;95000.72;;;-1.50;100.00
42247;BME280;27913;42.722;23.268;2023-12-20T07:38:34;94689.28;;;-3.61;100.00
42247;BME280;27913;42.722;23.268;2023-12-20T07:41:00;95043.44;;;-1.46;100.00
42247;BME280;27913;42.722;23.268;2023-12-20T07:43:25;94702.53;;;-3.54;100.00
42247;BME280;27913;42.722;23.268;2023-12-20T07:45:51;95038.47;;;-1.49;100.00
42247;BME280;27913;42.722;23.268;2023-12-20T07:48:17;95039.63;;;-1.53;100.00
42247;BME280;27913;42.722;23.268;2023-12-20T07:50:42;95025.69;;;-1.51;100.00
42247;BME280;27913;42.722;23.268;2023-12-20T07:53:08;95013.44;;;-1.24;100.00
42247;BME280;27913;42.722;23.268;2023-12-20T07:55:33;95037.81;;;-1.04;100.00
42247;BME280;27913;42.722;23.268;2023-12-20T07:58:00;95043.81;;;-0.92;100.00
42247;BME280;27913;42.722;23.268;2023-12-20T08:00:26;95029.38;;;-0.83;100.00
42247;BME280;27913;42.722;23.268;2023-12-20T08:02:52;95022.31;;;-0.92;100.00
42247;BME280;27913;42.722;23.268;2023-12-20T08:05:17;94989.34;;;-1.00;100.00
42247;BME280;27913;42.722;23.268;2023-12-20T08:07:43;94817.00;;;-2.13;100.00
42247;BME280;27913;42.722;23.268;2023-12-20T08:10:09;94868.50;;;-1.88;100.00
42247;BME280;27913;42.722;23.268;2023-12-20T08:12:34;94977.69;;;-1.17;100.00
42247;BME280;27913;42.722;23.268;2023-12-20T08:15:01;95027.38;;;-0.79;100.00
42247;BME280;27913;42.722;23.268;2023-12-20T08:17:26;94669.66;;;-2.77;100.00
42247;BME280;27913;42.722;23.268;2023-12-20T08:19:52;94651.97;;;-2.82;100.00
42247;BME280;27913;42.722;23.268;2023-12-20T08:22:17;95009.19;;;-0.66;100.00
42247;BME280;27913;42.722;23.268;2023-12-20T08:24:43;94620.13;;;-3.28;100.00
42247;BME280;27913;42.722;23.268;2023-12-20T08:27:09;95020.69;;;-0.82;100.00
42247;BME280;27913;42.722;23.268;2023-12-20T08:29:35;95007.88;;;-0.83;100.00
42247;BME280;27913;42.722;23.268;2023-12-20T08:32:01;94933.09;;;-1.19;100.00
42247;BME280;27913;42.722;23.268;2023-12-20T08:34:27;95005.28;;;-0.72;100.00
42247;BME280;27913;42.722;23.268;2023-12-20T08:36:53;94988.97;;;-0.61;100.00
42247;BME280;27913;42.722;23.268;2023-12-20T08:39:19;94982.50;;;-0.44;100.00
42247;BME280;27913;42.722;23.268;2023-12-20T08:41:44;94988.22;;;-0.17;100.00
42247;BME280;27913;42.722;23.268;2023-12-20T08:44:10;94626.16;;;-2.23;100.00
42247;BME280;27913;42.722;23.268;2023-12-20T08:46:35;94995.13;;;0.05;100.00
42247;BME280;27913;42.722;23.268;2023-12-20T08:49:02;94807.66;;;-0.99;100.00
42247;BME280;27913;42.722;23.268;2023-12-20T08:51:28;94979.41;;;-0.15;100.00
42247;BME280;27913;42.722;23.268;2023-12-20T08:53:54;94988.56;;;-0.10;100.00
42247;BME280;27913;42.722;23.268;2023-12-20T08:56:20;94976.78;;;-0.03;100.00
42247;BME280;27913;42.722;23.268;2023-12-20T08:58:46;94970.91;;;-0.05;100.00
42247;BME280;27913;42.722;23.268;2023-12-20T09:01:12;94694.22;;;-1.56;100.00
42247;BME280;27913;42.722;23.268;2023-12-20T09:03:39;94962.84;;;0.21;100.00
42247;BME280;27913;42.722;23.268;2023-12-20T09:06:05;94935.34;;;0.20;100.00
42247;BME280;27913;42.722;23.268;2023-12-20T09:08:31;94934.31;;;0.44;100.00
42247;BME280;27913;42.722;23.268;2023-12-20T09:10:56;94915.03;;;0.58;100.00
42247;BME280;27913;42.722;23.268;2023-12-20T09:13:22;94929.00;;;0.67;100.00
42247;BME280;27913;42.722;23.268;2023-12-20T09:15:53;94904.75;;;0.68;100.00
42247;BME280;27913;42.722;23.268;2023-12-20T09:18:19;94819.69;;;0.32;100.00
42247;BME280;27913;42.722;23.268;2023-12-20T09:20:44;94723.75;;;-0.18;100.00
42247;BME280;27913;42.722;23.268;2023-12-20T09:23:10;94898.66;;;0.79;100.00
42247;BME280;27913;42.722;23.268;2023-12-20T09:25:36;94849.94;;;0.63;100.00
42247;BME280;27913;42.722;23.268;2023-12-20T09:28:01;94654.22;;;-0.64;100.00
42247;BME280;27913;42.722;23.268;2023-12-20T09:30:27;94583.66;;;-1.07;100.00
42247;BME280;27913;42.722;23.268;2023-12-20T09:32:52;94876.00;;;0.71;100.00
42247;BME280;27913;42.722;23.268;2023-12-20T09:35:18;94873.72;;;0.78;100.00
42247;BME280;27913;42.722;23.268;2023-12-20T09:37:43;94767.13;;;0.31;100.00
42247;BME280;27913;42.722;23.268;2023-12-20T09:40:12;94862.81;;;1.05;100.00
42247;BME280;27913;42.722;23.268;2023-12-20T09:42:57;94839.91;;;1.11;100.00
42247;BME280;27913;42.722;23.268;2023-12-20T09:45:23;94855.25;;;1.02;100.00
42247;BME280;27913;42.722;23.268;2023-12-20T09:47:53;94741.06;;;0.23;100.00
42247;BME280;27913;42.722;23.268;2023-12-20T09:50:21;94861.22;;;0.62;100.00
42247;BME280;27913;42.722;23.268;2023-12-20T09:52:51;94846.34;;;0.54;100.00
42247;BME280;27913;42.722;23.268;2023-12-20T09:55:18;94852.94;;;0.58;100.00
42247;BME280;27913;42.722;23.268;2023-12-20T09:57:44;94827.81;;;0.48;100.00
42247;BME280;27913;42.722;23.268;2023-12-20T10:00:11;94850.25;;;0.69;100.00
42247;BME280;27913;42.722;23.268;2023-12-20T10:02:38;94848.91;;;0.75;100.00
42247;BME280;27913;42.722;23.268;2023-12-20T10:05:08;94826.34;;;0.87;100.00
42247;BME280;27913;42.722;23.268;2023-12-20T10:07:36;94632.84;;;-0.13;100.00
42247;BME280;27913;42.722;23.268;2023-12-20T10:10:02;94814.53;;;1.14;100.00
42247;BME280;27913;42.722;23.268;2023-12-20T10:12:28;94828.22;;;1.26;100.00
42247;BME280;27913;42.722;23.268;2023-12-20T10:14:53;94735.88;;;1.15;100.00
42247;BME280;27913;42.722;23.268;2023-12-20T10:17:21;94354.34;;;-1.12;100.00
42247;BME280;27913;42.722;23.268;2023-12-20T10:19:47;94639.88;;;0.57;100.00
42247;BME280;27913;42.722;23.268;2023-12-20T10:22:12;94454.72;;;-0.46;100.00
42247;BME280;27913;42.722;23.268;2023-12-20T10:24:39;94592.31;;;0.48;100.00
42247;BME280;27913;42.722;23.268;2023-12-20T10:27:07;94789.91;;;1.60;100.00
42247;BME280;27913;42.722;23.268;2023-12-20T10:29:36;94621.19;;;0.64;100.00
42247;BME280;27913;42.722;23.268;2023-12-20T10:32:27;94612.88;;;0.50;100.00
42247;BME280;27913;42.722;23.268;2023-12-20T10:34:54;94516.81;;;-0.16;100.00
42247;BME280;27913;42.722;23.268;2023-12-20T10:37:19;94627.16;;;0.44;100.00
42247;BME280;27913;42.722;23.268;2023-12-20T10:39:50;94653.22;;;0.63;100.00
42247;BME280;27913;42.722;23.268;2023-12-20T10:42:25;94462.03;;;-0.51;100.00
42247;BME280;27913;42.722;23.268;2023-12-20T10:44:51;94296.31;;;-1.59;100.00
42247;BME280;27913;42.722;23.268;2023-12-20T10:47:20;94429.88;;;-0.68;100.00
42247;BME280;27913;42.722;23.268;2023-12-20T10:49:46;94733.97;;;1.17;100.00
42247;BME280;27913;42.722;23.268;2023-12-20T10:52:12;94716.63;;;1.18;100.00
42247;BME280;27913;42.722;23.268;2023-12-20T10:54:41;94728.09;;;1.25;100.00
42247;BME280;27913;42.722;23.268;2023-12-20T10:57:07;94735.75;;;1.27;100.00
42247;BME280;27913;42.722;23.268;2023-12-20T10:59:37;94738.75;;;1.32;100.00
42247;BME280;27913;42.722;23.268;2023-12-20T11:02:04;94726.19;;;1.37;100.00
42247;BME280;27913;42.722;23.268;2023-12-20T11:04:42;94732.19;;;1.38;100.00
42247;BME280;27913;42.722;23.268;2023-12-20T11:07:33;94699.47;;;1.37;100.00
42247;BME280;27913;42.722;23.268;2023-12-20T11:10:16;94626.66;;;0.90;100.00
42247;BME280;27913;42.722;23.268;2023-12-20T11:13:15;94701.91;;;1.18;100.00
42247;BME280;27913;42.722;23.268;2023-12-20T11:15:43;94323.06;;;-1.18;100.00
42247;BME280;27913;42.722;23.268;2023-12-20T11:18:08;94687.06;;;1.11;100.00
42247;BME280;27913;42.722;23.268;2023-12-20T11:20:39;94232.50;;;-1.66;100.00
42247;BME280;27913;42.722;23.268;2023-12-20T11:23:06;94600.50;;;0.83;100.00
42247;BME280;27913;42.722;23.268;2023-12-20T11:25:54;94654.31;;;1.39;100.00
42247;BME280;27913;42.722;23.268;2023-12-20T11:28:24;94666.06;;;1.43;100.00
42247;BME280;27913;42.722;23.268;2023-12-20T11:30:55;94486.25;;;0.39;100.00
42247;BME280;27913;42.722;23.268;2023-12-20T11:33:25;94646.63;;;1.67;100.00
42247;BME280;27913;42.722;23.268;2023-12-20T11:35:51;94657.00;;;1.67;100.00
42247;BME280;27913;42.722;23.268;2023-12-20T11:38:19;94457.34;;;0.53;100.00
42247;BME280;27913;42.722;23.268;2023-12-20T11:40:48;94514.53;;;0.80;100.00
42247;BME280;27913;42.722;23.268;2023-12-20T11:43:53;94404.41;;;0.28;100.00
42247;BME280;27913;42.722;23.268;2023-12-20T11:46:19;94631.75;;;1.69;100.00
42247;BME280;27913;42.722;23.268;2023-12-20T11:48:45;94194.59;;;-0.95;100.00
42247;BME280;27913;42.722;23.268;2023-12-20T11:51:13;94201.81;;;-0.89;100.00
42247;BME280;27913;42.722;23.268;2023-12-20T11:53:40;94623.53;;;1.74;100.00
42247;BME280;27913;42.722;23.268;2023-12-20T11:56:06;94280.09;;;-0.49;100.00
42247;BME280;27913;42.722;23.268;2023-12-20T11:58:33;94576.31;;;1.32;100.00
42247;BME280;27913;42.722;23.268;2023-12-20T12:00:59;94588.56;;;1.50;100.00
42247;BME280;27913;42.722;23.268;2023-12-20T12:03:24;94526.75;;;0.98;100.00
42247;BME280;27913;42.722;23.268;2023-12-20T12:05:50;94481.97;;;0.67;100.00
42247;BME280;27913;42.722;23.268;2023-12-20T12:08:17;94587.75;;;1.40;100.00
42247;BME280;27913;42.722;23.268;2023-12-20T12:10:44;94588.97;;;1.46;100.00
42247;BME280;27913;42.722;23.268;2023-12-20T12:13:09;94578.06;;;1.42;100.00
42247;BME280;27913;42.722;23.268;2023-12-20T12:15:36;94346.69;;;0.07;100.00
42247;BME280;27913;42.722;23.268;2023-12-20T12:18:03;94575.44;;;1.52;100.00
42247;BME280;27913;42.722;23.268;2023-12-20T12:20:28;94560.88;;;1.51;100.00
42247;BME280;27913;42.722;23.268;2023-12-20T12:23:05;94405.28;;;0.56;100.00
42247;BME280;27913;42.722;23.268;2023-12-20T12:25:32;94550.34;;;1.52;100.00
42247;BME280;27913;42.722;23.268;2023-12-20T12:27:58;94569.28;;;1.63;100.00
42247;BME280;27913;42.722;23.268;2023-12-20T12:30:25;94546.88;;;1.62;100.00
42247;BME280;27913;42.722;23.268;2023-12-20T12:32:51;94566.63;;;1.73;100.00
42247;BME280;27913;42.722;23.268;2023-12-20T12:35:18;94303.41;;;0.09;100.00
42247;BME280;27913;42.722;23.268;2023-12-20T12:37:44;94560.56;;;1.54;100.00
42247;BME280;27913;42.722;23.268;2023-12-20T12:40:12;94312.03;;;0.00;100.00
42247;BME280;27913;42.722;23.268;2023-12-20T12:42:38;94565.13;;;1.42;100.00